Time;durP1;ratioP1;P1;durP2;ratioP2;P2;SDS_P1;SDS_P2;PMS_P1;PMS_P2;Temp;Humidity;BMP_temperature;BMP_pressure;BME280_temperature;BME280_humidity;BME280_pressure;Samples;Min_cycle;Max_cycle;Signal;HPM_P1;HPM_P2
2021/03/10 00:00:51;;;;;;;;;;;;;;;-6.92;62.72;100659.84;1744342;82;20186;-71
2021/03/10 00:03:22;;;;;;;;;;;;;;;-6.96;62.61;100663.73;1744326;81;20206;-71
2021/03/10 00:05:50;;;;;;;;;;;;;;;-7.01;62.88;100660.62;1744189;82;20346;-71
2021/03/10 00:08:18;;;;;;;;;;;;;;;-7.11;62.74;100669.33;1744171;81;20222;-73
2021/03/10 00:10:46;;;;;;;;;;;;;;;-7.11;62.99;100664.02;1743872;82;20171;-71
2021/03/10 00:13:14;;;;;;;;;;;;;;;-7.04;62.95;100666.19;1744804;81;20512;-72
2021/03/10 00:15:41;;;;;;;;;;;;;;;-7.04;62.93;100659.05;1744345;82;20187;-72
2021/03/10 00:18:10;;;;;;;;;;;;;;;-7.10;63.20;100663.05;1744185;81;20246;-72
2021/03/10 00:20:38;;;;;;;;;;;;;;;-7.08;62.43;100660.77;1744290;82;20191;-71
2021/03/10 00:23:06;;;;;;;;;;;;;;;-7.04;62.54;100659.05;1744271;81;20190;-71
2021/03/10 00:25:33;;;;;;;;;;;;;;;-7.03;62.43;100662.56;1744214;82;20233;-73
2021/03/10 00:28:01;;;;;;;;;;;;;;;-7.11;62.45;100659.20;1758008;81;20249;-73
2021/03/10 00:30:28;;;;;;;;;;;;;;;-7.08;61.92;100664.76;1761687;81;20283;-74
2021/03/10 00:32:56;;;;;;;;;;;;;;;-7.14;62.43;100660.30;1762132;81;20173;-72
2021/03/10 00:35:25;;;;;;;;;;;;;;;-7.18;62.01;100664.16;1761966;81;20264;-74
2021/03/10 00:37:55;;;;;;;;;;;;;;;-7.23;62.36;100666.36;1762120;81;20172;-73
2021/03/10 00:40:22;;;;;;;;;;;;;;;-7.32;62.37;100662.28;1761901;81;20189;-72
2021/03/10 00:42:50;;;;;;;;;;;;;;;-7.39;62.46;100663.76;1762637;81;20217;-72
2021/03/10 00:45:19;;;;;;;;;;;;;;;-7.44;62.79;100668.13;1761666;81;20228;-75
2021/03/10 00:47:46;;;;;;;;;;;;;;;-7.53;62.90;100665.34;1756915;81;20216;-72
2021/03/10 00:50:19;;;;;;;;;;;;;;;-7.60;63.23;100662.34;1741413;82;20187;-73
2021/03/10 00:52:47;;;;;;;;;;;;;;;-7.68;63.24;100666.09;1754627;82;20629;-70
2021/03/10 00:55:15;;;;;;;;;;;;;;;-7.77;63.59;100665.52;1754650;81;20185;-71
2021/03/10 00:57:43;;;;;;;;;;;;;;;-7.78;63.84;100662.48;1754285;81;20613;-71
2021/03/10 01:00:11;;;;;;;;;;;;;;;-7.70;63.59;100673.83;1752653;82;20623;-74
2021/03/10 01:02:39;;;;;;;;;;;;;;;-7.63;63.71;100663.91;1712821;83;20284;-74
2021/03/10 01:05:07;;;;;;;;;;;;;;;-7.58;62.99;100676.34;1736958;81;20206;-75
2021/03/10 01:07:35;;;;;;;;;;;;;;;-7.54;62.91;100672.97;1757155;80;20217;-75
2021/03/10 01:10:07;;;;;;;;;;;;;;;-7.53;62.70;100675.49;1757029;80;20494;-74
2021/03/10 01:12:35;;;;;;;;;;;;;;;-7.52;62.48;100679.00;1756937;82;20184;-73
2021/03/10 01:15:11;;;;;;;;;;;;;;;-7.51;62.37;100681.52;1757049;81;20193;-72
2021/03/10 01:17:39;;;;;;;;;;;;;;;-7.51;62.19;100682.03;1757240;80;20524;-74
2021/03/10 01:20:09;;;;;;;;;;;;;;;-7.56;62.03;100681.05;1757117;82;20192;-73
2021/03/10 01:22:36;;;;;;;;;;;;;;;-7.58;62.04;100682.99;1757073;82;20478;-72
2021/03/10 01:25:05;;;;;;;;;;;;;;;-7.61;62.05;100691.20;1757396;80;20249;-71
2021/03/10 01:27:32;;;;;;;;;;;;;;;-7.62;62.16;100688.20;1757236;81;20275;-70
2021/03/10 01:30:00;;;;;;;;;;;;;;;-7.63;62.17;100685.17;1757206;82;20217;-73
2021/03/10 01:32:28;;;;;;;;;;;;;;;-7.82;62.22;100699.06;1757038;82;20185;-71
2021/03/10 01:34:56;;;;;;;;;;;;;;;-7.99;62.83;100701.35;1757257;82;20511;-71
2021/03/10 01:37:24;;;;;;;;;;;;;;;-8.12;63.01;100700.64;1757026;82;20245;-75
2021/03/10 01:39:51;;;;;;;;;;;;;;;-8.24;63.45;100706.40;1757997;82;20201;-70
2021/03/10 01:42:18;;;;;;;;;;;;;;;-8.26;63.97;100708.84;1757797;82;20561;-74
2021/03/10 01:44:47;;;;;;;;;;;;;;;-8.27;63.69;100719.94;1757120;82;20185;-71
2021/03/10 01:47:15;;;;;;;;;;;;;;;-8.25;63.60;100716.67;1757203;82;20521;-74
2021/03/10 01:49:45;;;;;;;;;;;;;;;-8.18;63.57;100709.07;1757126;81;20201;-73
2021/03/10 01:52:13;;;;;;;;;;;;;;;-8.16;63.62;100719.08;1757130;82;20167;-74
2021/03/10 01:54:41;;;;;;;;;;;;;;;-8.15;63.18;100727.42;1757209;82;20209;-73
2021/03/10 01:57:08;;;;;;;;;;;;;;;-8.12;63.16;100727.20;1757211;82;20240;-75
2021/03/10 01:59:36;;;;;;;;;;;;;;;-8.04;62.87;100731.41;1757099;82;20213;-75
2021/03/10 02:02:04;;;;;;;;;;;;;;;-7.99;62.72;100729.23;1730125;82;20191;-73
2021/03/10 02:04:32;;;;;;;;;;;;;;;-7.94;62.68;100735.04;1708157;84;20790;-74
2021/03/10 02:07:12;;;;;;;;;;;;;;;-7.92;62.43;100731.30;1709434;84;20606;-71
2021/03/10 02:10:00;;;;;;;;;;;;;;;-7.92;62.04;100733.95;1739914;82;20186;-73
2021/03/10 02:12:38;;;;;;;;;;;;;;;-7.92;61.57;100744.58;1699580;82;20199;-74
2021/03/10 02:15:11;;;;;;;;;;;;;;;-8.00;61.59;100744.83;1738872;82;20247;-71
2021/03/10 02:17:41;;;;;;;;;;;;;;;-8.18;62.11;100746.24;1713508;82;20305;-73
2021/03/10 02:20:31;;;;;;;;;;;;;;;-8.32;62.23;100747.31;1709141;83;20209;-73
2021/03/10 02:23:11;;;;;;;;;;;;;;;-8.42;62.42;100753.81;1738762;82;20226;-71
2021/03/10 02:25:55;;;;;;;;;;;;;;;-8.50;62.95;100754.05;1708064;84;20214;-74
2021/03/10 02:28:22;;;;;;;;;;;;;;;-8.57;62.92;100754.11;1708325;83;20242;-72
2021/03/10 02:30:51;;;;;;;;;;;;;;;-8.59;63.10;100758.70;1739248;82;20187;-71
2021/03/10 02:33:20;;;;;;;;;;;;;;;-8.62;63.27;100757.11;1757893;81;20209;-71
2021/03/10 02:35:52;;;;;;;;;;;;;;;-8.58;63.20;100760.40;1757507;82;20249;-71
2021/03/10 02:38:20;;;;;;;;;;;;;;;-8.59;63.28;100759.55;1748605;82;20193;-73
2021/03/10 02:40:51;;;;;;;;;;;;;;;-8.63;63.60;100760.75;1751185;82;20204;-72
2021/03/10 02:43:20;;;;;;;;;;;;;;;-8.63;63.06;100760.75;1728967;82;20668;-72
2021/03/10 02:45:49;;;;;;;;;;;;;;;-8.54;62.95;100769.81;1726624;82;20186;-73
2021/03/10 02:48:16;;;;;;;;;;;;;;;-8.47;62.95;100771.03;1750646;82;20193;-72
2021/03/10 02:50:45;;;;;;;;;;;;;;;-8.43;62.73;100770.72;1747302;82;20186;-72
2021/03/10 02:53:12;;;;;;;;;;;;;;;-8.45;62.53;100772.61;1747218;82;20185;-73
2021/03/10 02:55:40;;;;;;;;;;;;;;;-8.42;62.29;100775.05;1756167;82;20476;-73
2021/03/10 02:58:09;;;;;;;;;;;;;;;-8.48;62.42;100776.84;1749570;82;20236;-71
2021/03/10 03:00:38;;;;;;;;;;;;;;;-8.54;62.51;100771.14;1741233;81;20263;-70
2021/03/10 03:03:06;;;;;;;;;;;;;;;-8.61;62.59;100772.09;1746888;81;20316;-73
2021/03/10 03:05:34;;;;;;;;;;;;;;;-8.65;62.75;100772.44;1731998;81;20188;-77
2021/03/10 03:08:02;;;;;;;;;;;;;;;-8.74;62.96;100769.13;1759643;81;20177;-75
2021/03/10 03:10:32;;;;;;;;;;;;;;;-8.69;62.72;100765.64;1755123;82;20225;-74
2021/03/10 03:12:59;;;;;;;;;;;;;;;-8.58;62.22;100772.34;1754946;81;20189;-75
2021/03/10 03:15:27;;;;;;;;;;;;;;;-8.52;62.02;100775.84;1754932;81;20257;-73
2021/03/10 03:17:55;;;;;;;;;;;;;;;-8.53;62.17;100772.37;1760927;81;20184;-74
2021/03/10 03:20:23;;;;;;;;;;;;;;;-8.61;62.25;100769.44;1762326;81;20188;-74
2021/03/10 03:22:54;;;;;;;;;;;;;;;-8.67;62.30;100774.33;1756761;81;20612;-74
2021/03/10 03:25:31;;;;;;;;;;;;;;;-8.79;62.66;100773.45;1754757;82;20280;-72
2021/03/10 03:28:00;;;;;;;;;;;;;;;-8.85;62.85;100776.54;1737501;82;21080;-72
2021/03/10 03:30:33;;;;;;;;;;;;;;;-8.90;63.13;100778.68;1743884;81;20152;-77
2021/03/10 03:33:02;;;;;;;;;;;;;;;-8.94;63.36;100784.33;1746427;81;20409;-75
2021/03/10 03:35:30;;;;;;;;;;;;;;;-9.00;63.40;100771.03;1743706;81;20249;-76
2021/03/10 03:37:58;;;;;;;;;;;;;;;-9.05;63.41;100775.83;1754081;82;20244;-73
2021/03/10 03:40:26;;;;;;;;;;;;;;;-9.06;63.52;100774.15;1747357;82;20249;-75
2021/03/10 03:42:53;;;;;;;;;;;;;;;-9.06;63.61;100768.84;1755614;82;20232;-75
2021/03/10 03:45:22;;;;;;;;;;;;;;;-9.09;63.59;100767.73;1756747;82;20657;-75
2021/03/10 03:47:54;;;;;;;;;;;;;;;-9.09;63.80;100765.09;1755985;82;20220;-74
2021/03/10 03:50:23;;;;;;;;;;;;;;;-9.09;64.02;100769.06;1752999;82;20185;-76
2021/03/10 03:52:51;;;;;;;;;;;;;;;-9.09;63.93;100773.04;1755019;82;20295;-76
2021/03/10 03:55:19;;;;;;;;;;;;;;;-9.12;63.91;100771.93;1744459;81;20940;-76
2021/03/10 03:57:46;;;;;;;;;;;;;;;-9.17;63.98;100772.74;1749592;82;20185;-75
2021/03/10 04:00:20;;;;;;;;;;;;;;;-9.16;64.08;100773.94;1748401;82;20179;-76
2021/03/10 04:02:47;;;;;;;;;;;;;;;-9.12;63.92;100778.56;1719824;82;20223;-75
2021/03/10 04:05:16;;;;;;;;;;;;;;;-9.12;64.26;100782.06;1756931;82;20185;-77
2021/03/10 04:07:50;;;;;;;;;;;;;;;-9.10;64.67;100785.91;1754711;82;20169;-75
2021/03/10 04:10:23;;;;;;;;;;;;;;;-9.11;64.65;100782.41;1749181;82;20188;-75
2021/03/10 04:12:50;;;;;;;;;;;;;;;-9.11;64.58;100789.04;1756389;81;20205;-75
2021/03/10 04:15:18;;;;;;;;;;;;;;;-9.12;64.73;100786.52;1753996;82;20196;-75
2021/03/10 04:17:47;;;;;;;;;;;;;;;-9.07;65.14;100793.18;1753396;82;20177;-75
2021/03/10 04:20:19;;;;;;;;;;;;;;;-9.08;64.88;100792.80;1755520;82;20299;-75
2021/03/10 04:22:47;;;;;;;;;;;;;;;-9.09;64.90;100798.23;1748313;82;20253;-75
2021/03/10 04:25:15;;;;;;;;;;;;;;;-9.15;65.02;100797.33;1728039;82;20324;-72
2021/03/10 04:27:42;;;;;;;;;;;;;;;-9.21;65.08;100795.96;1731971;83;20508;-72
2021/03/10 04:30:11;;;;;;;;;;;;;;;-9.22;65.05;100797.41;1713417;82;20186;-72
2021/03/10 04:32:38;;;;;;;;;;;;;;;-9.22;65.85;100801.38;1756661;82;21001;-75
2021/03/10 04:35:08;;;;;;;;;;;;;;;-9.24;67.56;100804.62;1751240;82;20161;-73
2021/03/10 04:37:36;;;;;;;;;;;;;;;-9.27;68.39;100804.84;1756948;82;20508;-74
2021/03/10 04:40:04;;;;;;;;;;;;;;;-9.29;68.91;100806.77;1747229;81;20217;-74
2021/03/10 04:42:32;;;;;;;;;;;;;;;-9.28;68.60;100816.39;1755267;82;20631;-75
2021/03/10 04:45:00;;;;;;;;;;;;;;;-9.33;68.32;100812.75;1748921;81;20232;-74
2021/03/10 04:47:27;;;;;;;;;;;;;;;-9.31;67.90;100821.94;1747364;82;20201;-74
2021/03/10 04:49:55;;;;;;;;;;;;;;;-9.26;67.30;100827.75;1751712;82;20181;-74
2021/03/10 04:52:23;;;;;;;;;;;;;;;-9.22;66.75;100826.09;1756976;82;20185;-74
2021/03/10 04:54:51;;;;;;;;;;;;;;;-9.15;66.28;100827.81;1756946;81;20170;-73
2021/03/10 04:57:18;;;;;;;;;;;;;;;-9.09;66.14;100827.39;1743321;81;20202;-71
2021/03/10 04:59:46;;;;;;;;;;;;;;;-9.03;66.04;100828.29;1756606;82;20284;-70
2021/03/10 05:02:15;;;;;;;;;;;;;;;-8.94;64.82;100824.96;1756956;82;20197;-71
2021/03/10 05:04:42;;;;;;;;;;;;;;;-8.91;64.67;100823.42;1757715;82;20212;-70
2021/03/10 05:07:10;;;;;;;;;;;;;;;-8.91;64.06;100827.39;1754210;82;20196;-72
2021/03/10 05:09:39;;;;;;;;;;;;;;;-8.92;64.38;100827.02;1753385;82;20197;-72
2021/03/10 05:12:08;;;;;;;;;;;;;;;-8.92;64.30;100833.64;1755136;82;20249;-71
2021/03/10 05:14:36;;;;;;;;;;;;;;;-8.86;63.95;100835.87;1755624;82;20192;-75
2021/03/10 05:17:04;;;;;;;;;;;;;;;-8.79;63.75;100843.73;1754848;82;20606;-73
2021/03/10 05:19:32;;;;;;;;;;;;;;;-8.73;63.44;100843.31;1751592;82;20229;-74
2021/03/10 05:21:59;;;;;;;;;;;;;;;-8.70;63.49;100845.71;1753097;82;20631;-84
2021/03/10 05:24:28;;;;;;;;;;;;;;;-8.70;63.28;100848.87;1729716;82;20492;-73
2021/03/10 05:26:56;;;;;;;;;;;;;;;-8.65;63.10;100856.02;1751064;82;20322;-76
2021/03/10 05:29:24;;;;;;;;;;;;;;;-8.62;62.92;100859.27;1735371;82;20507;-73
2021/03/10 05:31:51;;;;;;;;;;;;;;;-8.62;62.95;100855.29;1748364;82;20192;-71
2021/03/10 05:34:19;;;;;;;;;;;;;;;-8.61;63.17;100855.67;1751911;82;20276;-71
2021/03/10 05:36:47;;;;;;;;;;;;;;;-8.61;62.90;100863.63;1752530;81;20180;-74
2021/03/10 05:39:16;;;;;;;;;;;;;;;-8.55;63.03;100865.81;1749183;82;20249;-73
2021/03/10 05:41:43;;;;;;;;;;;;;;;-8.53;62.94;100871.03;1749485;82;20210;-74
2021/03/10 05:44:11;;;;;;;;;;;;;;;-8.56;62.69;100882.72;1746299;81;20297;-72
2021/03/10 05:46:39;;;;;;;;;;;;;;;-8.53;62.78;100881.64;1751825;81;20520;-74
2021/03/10 05:49:08;;;;;;;;;;;;;;;-8.50;62.74;100876.12;1744364;81;20197;-74
2021/03/10 05:51:37;;;;;;;;;;;;;;;-8.47;62.99;100883.83;1744538;80;20724;-75
2021/03/10 05:54:05;;;;;;;;;;;;;;;-8.40;62.65;100881.94;1738915;82;20185;-72
2021/03/10 05:56:32;;;;;;;;;;;;;;;-8.33;62.61;100882.83;1738416;82;20506;-75
2021/03/10 05:59:01;;;;;;;;;;;;;;;-8.26;61.78;100880.08;1745972;82;20217;-76
2021/03/10 06:01:29;;;;;;;;;;;;;;;-8.20;61.98;100883.59;1744857;82;20212;-76
2021/03/10 06:03:58;;;;;;;;;;;;;;;-8.12;61.98;100890.50;1728332;82;20264;-77
2021/03/10 06:06:32;;;;;;;;;;;;;;;-8.05;61.38;100899.70;1748425;80;20537;-74
2021/03/10 06:09:13;;;;;;;;;;;;;;;-7.94;62.35;100897.07;1749579;81;20212;-78
2021/03/10 06:11:58;;;;;;;;;;;;;;;-7.74;61.32;100905.74;1740869;81;20225;-81
2021/03/10 06:14:30;;;;;;;;;;;;;;;-7.58;59.82;100908.05;1740534;82;20210;-74
2021/03/10 06:17:03;;;;;;;;;;;;;;;-7.58;59.96;100907.58;1738278;82;20548;-75
2021/03/10 06:19:48;;;;;;;;;;;;;;;-7.53;60.01;100913.86;1725895;82;20242;-76
2021/03/10 06:22:16;;;;;;;;;;;;;;;-7.49;59.90;100918.85;1749664;82;20275;-76
2021/03/10 06:24:50;;;;;;;;;;;;;;;-7.31;59.51;100921.40;1749403;82;20228;-77
2021/03/10 06:27:23;;;;;;;;;;;;;;;-7.13;59.49;100914.66;1753457;82;20184;-76
2021/03/10 06:29:58;;;;;;;;;;;;;;;-6.97;59.15;100920.95;1755486;81;20204;-76
2021/03/10 06:32:26;;;;;;;;;;;;;;;-6.83;58.91;100918.55;1749893;82;20258;-77
2021/03/10 06:34:54;;;;;;;;;;;;;;;-6.71;58.40;100922.89;1750294;82;20184;-77
2021/03/10 06:37:27;;;;;;;;;;;;;;;-6.54;57.70;100916.57;1749857;82;20600;-77
2021/03/10 06:40:11;;;;;;;;;;;;;;;-6.43;57.59;100910.86;1750386;82;20600;-77
2021/03/10 06:42:39;;;;;;;;;;;;;;;-6.39;56.77;100910.96;1748524;82;20181;-75
2021/03/10 06:45:11;;;;;;;;;;;;;;;-6.29;56.84;100902.59;1745600;81;20247;-77
2021/03/10 06:47:40;;;;;;;;;;;;;;;-6.28;55.43;100909.61;1725567;82;20282;-77
2021/03/10 06:50:10;;;;;;;;;;;;;;;-6.26;56.51;100908.52;1733790;82;20283;-77
2021/03/10 06:52:40;;;;;;;;;;;;;;;-6.18;55.32;100914.07;1757125;82;20248;-75
2021/03/10 06:55:10;;;;;;;;;;;;;;;-6.12;55.54;100916.21;1756850;82;20197;-77
2021/03/10 06:57:44;;;;;;;;;;;;;;;-6.05;55.18;100911.24;1758146;82;20247;-74
2021/03/10 07:00:23;;;;;;;;;;;;;;;-5.91;54.95;100905.60;1751622;81;20623;-78
2021/03/10 07:02:51;;;;;;;;;;;;;;;-5.77;53.80;100909.28;1708144;84;20234;-75
2021/03/10 07:05:19;;;;;;;;;;;;;;;-5.82;53.88;100918.97;1738005;82;20227;-76
2021/03/10 07:07:47;;;;;;;;;;;;;;;-5.87;53.01;100913.20;1750021;82;20223;-76
2021/03/10 07:10:19;;;;;;;;;;;;;;;-5.83;51.70;100919.96;1752805;82;20480;-76
2021/03/10 07:12:46;;;;;;;;;;;;;;;-5.71;52.39;100915.89;1756930;81;20216;-79
2021/03/10 07:15:15;;;;;;;;;;;;;;;-5.62;51.62;100915.98;1756812;82;20260;-77
2021/03/10 07:17:44;;;;;;;;;;;;;;;-5.66;51.67;100914.54;1756985;82;20501;-76
2021/03/10 07:20:13;;;;;;;;;;;;;;;-5.59;51.05;100917.55;1757289;82;20184;-77
2021/03/10 07:22:53;;;;;;;;;;;;;;;-5.47;51.26;100909.36;1757502;82;20597;-77
2021/03/10 07:25:29;;;;;;;;;;;;;;;-5.34;51.40;100909.98;1756883;81;20518;-77
2021/03/10 07:28:00;;;;;;;;;;;;;;;-5.24;50.64;100912.73;1736625;82;20237;-76
2021/03/10 07:30:39;;;;;;;;;;;;;;;-5.16;50.71;100915.59;1708911;84;20188;-76
2021/03/10 07:33:14;;;;;;;;;;;;;;;-5.16;48.65;100907.58;1741319;81;20308;-76
2021/03/10 07:35:53;;;;;;;;;;;;;;;-5.17;50.50;100904.55;1741196;82;20182;-75
2021/03/10 07:38:23;;;;;;;;;;;;;;;-5.06;50.44;100912.48;1736764;81;20496;-76
2021/03/10 07:40:53;;;;;;;;;;;;;;;-5.02;49.16;100911.70;1735399;81;20159;-77
2021/03/10 07:43:21;;;;;;;;;;;;;;;-5.06;49.61;100912.97;1711936;82;20178;-77
2021/03/10 07:45:48;;;;;;;;;;;;;;;-5.05;47.55;100911.97;1738165;82;20242;-76
2021/03/10 07:48:16;;;;;;;;;;;;;;;-5.03;47.80;100908.19;1738310;82;20190;-75
2021/03/10 07:50:45;;;;;;;;;;;;;;;-5.06;47.81;100911.15;1756298;81;20211;-77
2021/03/10 07:53:13;;;;;;;;;;;;;;;-5.03;48.12;100917.53;1769973;80;20227;-76
2021/03/10 07:55:48;;;;;;;;;;;;;;;-5.01;47.16;100924.09;1769380;81;20599;-77
2021/03/10 07:58:28;;;;;;;;;;;;;;;-4.96;47.66;100916.52;1769589;80;20218;-77
2021/03/10 08:00:56;;;;;;;;;;;;;;;-4.88;48.55;100918.86;1746974;81;20532;-75
2021/03/10 08:03:30;;;;;;;;;;;;;;;-4.75;47.50;100915.97;1741577;82;20244;-77
2021/03/10 08:06:03;;;;;;;;;;;;;;;-4.67;46.72;100916.99;1741961;82;20206;-75
2021/03/10 08:08:39;;;;;;;;;;;;;;;-4.61;46.55;100915.13;1740070;82;20234;-76
2021/03/10 08:11:12;;;;;;;;;;;;;;;-4.53;46.04;100917.94;1739559;82;20238;-77
2021/03/10 08:13:42;;;;;;;;;;;;;;;-4.52;45.93;100919.64;1738026;82;20190;-77
2021/03/10 08:16:11;;;;;;;;;;;;;;;-4.47;42.98;100918.37;1739786;82;20282;-76
2021/03/10 08:18:43;;;;;;;;;;;;;;;-4.46;43.37;100914.25;1740836;82;20290;-76
2021/03/10 08:21:13;;;;;;;;;;;;;;;-4.45;44.06;100918.59;1736929;81;20190;-77
2021/03/10 08:23:41;;;;;;;;;;;;;;;-4.36;44.35;100907.59;1738225;82;20178;-76
2021/03/10 08:26:10;;;;;;;;;;;;;;;-4.32;42.50;100917.01;1740847;81;20183;-76
2021/03/10 08:28:41;;;;;;;;;;;;;;;-4.28;43.66;100918.45;1734817;82;20260;-77
2021/03/10 08:31:11;;;;;;;;;;;;;;;-4.30;43.43;100910.55;1741644;81;20243;-77
2021/03/10 08:33:47;;;;;;;;;;;;;;;-4.29;43.16;100914.07;1755091;81;20585;-75
2021/03/10 08:36:15;;;;;;;;;;;;;;;-4.19;44.08;100908.25;1742910;81;20240;-76
2021/03/10 08:38:47;;;;;;;;;;;;;;;-4.06;43.78;100907.02;1748069;81;20182;-77
2021/03/10 08:41:16;;;;;;;;;;;;;;;-3.99;44.14;100910.81;1752573;81;20515;-78
2021/03/10 08:43:44;;;;;;;;;;;;;;;-3.86;44.23;100906.05;1755072;81;20245;-74
2021/03/10 08:46:12;;;;;;;;;;;;;;;-3.73;43.49;100908.92;1718231;81;20271;-75
2021/03/10 08:48:39;;;;;;;;;;;;;;;-3.72;43.62;100911.47;1752438;82;20220;-76
2021/03/10 08:51:07;;;;;;;;;;;;;;;-3.66;44.01;100906.02;1754158;81;20226;-78
2021/03/10 08:53:35;;;;;;;;;;;;;;;-3.57;44.36;100912.73;1752823;82;20273;-76
2021/03/10 08:56:06;;;;;;;;;;;;;;;-3.47;44.40;100902.86;1751875;82;20189;-81
2021/03/10 08:58:34;;;;;;;;;;;;;;;-3.43;43.92;100912.77;1757465;82;20531;-83
2021/03/10 09:01:14;;;;;;;;;;;;;;;-3.47;43.67;100916.73;1744099;81;20238;-79
2021/03/10 09:03:45;;;;;;;;;;;;;;;-3.46;43.73;100909.03;1757841;82;20196;-77
2021/03/10 09:06:14;;;;;;;;;;;;;;;-3.40;44.03;100917.35;1756648;82;20185;-81
2021/03/10 09:08:43;;;;;;;;;;;;;;;-3.36;44.26;100913.39;1749847;82;20614;-78
2021/03/10 09:11:12;;;;;;;;;;;;;;;-3.32;43.25;100902.77;1727236;82;20179;-78
2021/03/10 09:13:45;;;;;;;;;;;;;;;-3.25;43.52;100902.53;1752138;80;20845;-79
2021/03/10 09:16:17;;;;;;;;;;;;;;;-3.32;43.24;100913.47;1754731;82;20186;-81
2021/03/10 09:18:58;;;;;;;;;;;;;;;-3.28;42.81;100913.52;1712743;82;20178;-84
2021/03/10 09:21:38;;;;;;;;;;;;;;;-3.27;43.41;100916.56;1705033;83;20251;-78
2021/03/10 09:24:07;;;;;;;;;;;;;;;-3.18;43.73;100909.48;1745786;82;20177;-77
2021/03/10 09:26:39;;;;;;;;;;;;;;;-3.04;43.23;100909.52;1737533;81;20204;-74
2021/03/10 09:29:09;;;;;;;;;;;;;;;-2.99;42.35;100913.95;1754371;81;20177;-76
2021/03/10 09:31:54;;;;;;;;;;;;;;;-2.89;42.72;100920.12;1742634;82;20205;-78
2021/03/10 09:34:25;;;;;;;;;;;;;;;-2.83;42.58;100911.48;1729244;82;20304;-78
2021/03/10 09:36:53;;;;;;;;;;;;;;;-2.81;43.31;100911.68;1764349;81;20227;-80
2021/03/10 09:39:23;;;;;;;;;;;;;;;-2.77;42.09;100912.23;1742665;81;20184;-83
2021/03/10 09:41:53;;;;;;;;;;;;;;;-2.76;41.42;100913.94;1752300;81;20197;-81
2021/03/10 09:44:22;;;;;;;;;;;;;;;-2.73;40.12;100916.30;1745772;80;20187;-79
2021/03/10 09:46:50;;;;;;;;;;;;;;;-2.81;41.03;100913.54;1723688;81;20201;-77
2021/03/10 09:49:20;;;;;;;;;;;;;;;-2.79;40.58;100918.25;1758501;80;20203;-79
2021/03/10 09:51:49;;;;;;;;;;;;;;;-2.78;40.75;100915.89;1733435;82;20192;-80
2021/03/10 09:54:25;;;;;;;;;;;;;;;-2.73;41.33;100915.81;1752015;81;20177;-78
2021/03/10 09:56:55;;;;;;;;;;;;;;;-2.65;42.26;100918.60;1757218;81;20288;-78
2021/03/10 09:59:32;;;;;;;;;;;;;;;-2.63;41.70;100919.78;1708231;82;20205;-82
2021/03/10 10:02:02;;;;;;;;;;;;;;;-2.64;42.19;100918.97;1740111;81;20183;-81
2021/03/10 10:04:38;;;;;;;;;;;;;;;-2.64;39.80;100920.30;1745468;81;20264;-82
2021/03/10 10:07:13;;;;;;;;;;;;;;;-2.63;39.73;100924.66;1722838;81;20210;-84
2021/03/10 10:09:52;;;;;;;;;;;;;;;-2.59;40.69;100919.86;1750591;81;20202;-79
2021/03/10 10:12:22;;;;;;;;;;;;;;;-2.56;39.74;100920.91;1754668;80;20266;-82
2021/03/10 10:14:52;;;;;;;;;;;;;;;-2.57;41.16;100921.88;1758761;81;20182;-85
2021/03/10 10:17:23;;;;;;;;;;;;;;;-2.55;41.57;100919.89;1741555;81;20557;-78
2021/03/10 10:19:52;;;;;;;;;;;;;;;-2.59;40.82;100912.67;1756785;81;20209;-81
2021/03/10 10:22:21;;;;;;;;;;;;;;;-2.56;42.15;100915.55;1769819;80;20160;-82
2021/03/10 10:24:48;;;;;;;;;;;;;;;-2.48;41.53;100916.99;1772828;81;20165;-76
2021/03/10 10:27:17;;;;;;;;;;;;;;;-2.44;41.37;100914.84;1757445;81;20246;-75
2021/03/10 10:29:45;;;;;;;;;;;;;;;-2.39;41.28;100909.38;1758436;81;20180;-78
2021/03/10 10:32:13;;;;;;;;;;;;;;;-2.37;40.10;100907.39;1763054;81;20211;-77
2021/03/10 10:34:43;;;;;;;;;;;;;;;-2.38;40.93;100907.06;1763873;81;20207;-80
2021/03/10 10:37:13;;;;;;;;;;;;;;;-2.32;41.13;100908.27;1721903;81;20232;-82
2021/03/10 10:39:46;;;;;;;;;;;;;;;-2.34;41.22;100904.41;1759607;81;20180;-81
2021/03/10 10:42:17;;;;;;;;;;;;;;;-2.33;41.57;100907.45;1759585;81;20579;-83
2021/03/10 10:44:49;;;;;;;;;;;;;;;-2.22;41.41;100913.08;1749241;81;20222;-81
2021/03/10 10:47:20;;;;;;;;;;;;;;;-2.18;40.28;100903.27;1707265;83;20197;-80
2021/03/10 10:49:50;;;;;;;;;;;;;;;-2.19;39.55;100900.72;1709075;84;20259;-81
2021/03/10 10:52:20;;;;;;;;;;;;;;;-2.38;37.75;100909.74;1737927;81;20300;-80
2021/03/10 10:54:50;;;;;;;;;;;;;;;-2.42;37.98;100908.34;1712291;82;20250;-78
2021/03/10 10:57:18;;;;;;;;;;;;;;;-2.39;37.35;100902.68;1715241;82;20218;-79
2021/03/10 10:59:51;;;;;;;;;;;;;;;-2.35;36.87;100900.03;1741218;81;20178;-81
2021/03/10 11:02:28;;;;;;;;;;;;;;;-2.30;36.76;100896.41;1739884;81;20373;-82
2021/03/10 11:04:55;;;;;;;;;;;;;;;-2.19;38.77;100894.02;1724758;81;20236;-76
2021/03/10 11:07:24;;;;;;;;;;;;;;;-2.10;39.44;100891.79;1731064;82;20245;-77
2021/03/10 11:09:53;;;;;;;;;;;;;;;-2.08;39.36;100890.64;1757363;81;20165;-77
2021/03/10 11:12:22;;;;;;;;;;;;;;;-2.03;39.65;100887.00;1759061;81;20165;-79
2021/03/10 11:14:55;;;;;;;;;;;;;;;-2.01;40.70;100885.50;1749344;81;20253;-85
2021/03/10 11:17:29;;;;;;;;;;;;;;;-2.06;37.28;100887.30;1732011;81;20196;-76
2021/03/10 11:19:59;;;;;;;;;;;;;;;-2.07;37.11;100882.92;1743572;82;20234;-77
2021/03/10 11:22:28;;;;;;;;;;;;;;;-2.02;38.03;100886.48;1756685;82;20192;-75
2021/03/10 11:24:56;;;;;;;;;;;;;;;-1.99;39.10;100883.01;1757382;82;20499;-76
2021/03/10 11:27:24;;;;;;;;;;;;;;;-1.97;39.63;100881.01;1754032;81;20785;-73
2021/03/10 11:29:53;;;;;;;;;;;;;;;-1.89;39.83;100875.37;1744663;81;20176;-78
2021/03/10 11:32:22;;;;;;;;;;;;;;;-1.87;39.42;100878.77;1735527;82;20180;-76
2021/03/10 11:34:50;;;;;;;;;;;;;;;-1.94;40.61;100873.16;1756855;82;20545;-80
2021/03/10 11:37:19;;;;;;;;;;;;;;;-1.92;37.85;100872.49;1749375;81;20246;-77
2021/03/10 11:39:49;;;;;;;;;;;;;;;-1.97;38.58;100872.11;1750170;81;20185;-83
2021/03/10 11:42:17;;;;;;;;;;;;;;;-1.94;39.12;100869.98;1752992;81;20246;-77
2021/03/10 11:44:45;;;;;;;;;;;;;;;-1.90;39.17;100871.02;1738531;81;20228;-77
2021/03/10 11:47:13;;;;;;;;;;;;;;;-1.97;39.23;100862.23;1755757;82;20773;-77
2021/03/10 11:49:43;;;;;;;;;;;;;;;-2.03;39.94;100860.18;1753422;82;20185;-78
2021/03/10 11:52:11;;;;;;;;;;;;;;;-1.97;39.86;100862.23;1749273;82;20633;-78
2021/03/10 11:54:39;;;;;;;;;;;;;;;-1.95;39.52;100858.08;1756039;82;20503;-76
2021/03/10 11:57:09;;;;;;;;;;;;;;;-1.97;37.05;100864.06;1752733;82;20177;-76
2021/03/10 11:59:36;;;;;;;;;;;;;;;-2.02;36.41;100857.83;1752580;82;20240;-77
2021/03/10 12:02:07;;;;;;;;;;;;;;;-2.08;37.13;100861.14;1755170;82;20519;-77
2021/03/10 12:04:37;;;;;;;;;;;;;;;-2.06;37.12;100864.99;1750020;82;20244;-77
2021/03/10 12:07:07;;;;;;;;;;;;;;;-2.08;37.66;100854.44;1752328;82;20229;-78
2021/03/10 12:09:37;;;;;;;;;;;;;;;-2.07;39.29;100852.08;1749683;82;20676;-77
2021/03/10 12:12:05;;;;;;;;;;;;;;;-2.03;38.29;100854.82;1752247;81;20319;-76
2021/03/10 12:14:36;;;;;;;;;;;;;;;-2.07;38.19;100851.23;1752273;81;20185;-76
2021/03/10 12:17:05;;;;;;;;;;;;;;;-2.21;37.14;100853.11;1751168;82;20201;-74
2021/03/10 12:19:35;;;;;;;;;;;;;;;-2.32;38.77;100847.47;1751099;82;20192;-82
2021/03/10 12:22:06;;;;;;;;;;;;;;;-2.27;38.63;100847.85;1754034;81;20194;-80
2021/03/10 12:24:33;;;;;;;;;;;;;;;-2.17;38.49;100849.97;1726966;83;20190;-79
2021/03/10 12:27:02;;;;;;;;;;;;;;;-2.14;37.79;100850.16;1727787;83;20187;-86
2021/03/10 12:29:30;;;;;;;;;;;;;;;-2.16;38.63;100841.43;1731311;81;20210;-80
2021/03/10 12:31:58;;;;;;;;;;;;;;;-2.21;38.00;100848.59;1753456;82;20185;-80
2021/03/10 12:34:26;;;;;;;;;;;;;;;-2.34;38.22;100842.77;1727877;82;20251;-81
2021/03/10 12:36:53;;;;;;;;;;;;;;;-2.36;39.03;100843.41;1754781;82;20239;-81
2021/03/10 12:39:21;;;;;;;;;;;;;;;-2.35;38.41;100843.73;1726374;82;20267;-81
2021/03/10 12:41:49;;;;;;;;;;;;;;;-2.35;37.75;100846.42;1753494;81;20536;-82
2021/03/10 12:44:18;;;;;;;;;;;;;;;-2.38;38.67;100841.39;1744321;82;20587;-84
2021/03/10 12:46:46;;;;;;;;;;;;;;;-2.35;37.28;100835.70;1758049;81;20204;-79
2021/03/10 12:49:14;;;;;;;;;;;;;;;-2.34;38.93;100832.03;1740588;81;20186;-79